Terminal Aerodrome Forecast
Issued by NWS

Home | Current Version | Previous Version | Text Only | Print | Product List | Glossary On
Versions: 1 2 3 4 5 6 7 8 9 10 11 12 13 14
089
FTUS42 KJAX 241120
TAFVQQ
TAF
KVQQ 241120Z 2412/2512 20004KT P6SM FEW250
     FM241800 12008KT P6SM SCT050
     FM250100 VRB03KT P6SM FEW250=

USA.gov is the U.S. government's official web portal to all federal, state and local government web resources and services.